sensor_id;sensor_type;location;lat;lon;timestamp;P1;durP1;ratioP1;P2;durP2;ratioP2
74749;SDS011;63269;53.330;-6.288;2023-04-21T00:00:53;4.45;;;1.42;;
74749;SDS011;63269;53.330;-6.288;2023-04-21T00:03:20;3.63;;;1.70;;
74749;SDS011;63269;53.330;-6.288;2023-04-21T00:05:46;3.25;;;1.50;;
74749;SDS011;63269;53.330;-6.288;2023-04-21T00:08:12;4.18;;;1.70;;
74749;SDS011;63269;53.330;-6.288;2023-04-21T00:10:38;4.55;;;1.52;;
74749;SDS011;63269;53.330;-6.288;2023-04-21T00:13:03;3.63;;;1.42;;
74749;SDS011;63269;53.330;-6.288;2023-04-21T00:15:29;3.65;;;1.65;;
74749;SDS011;63269;53.330;-6.288;2023-04-21T00:17:54;4.75;;;1.65;;
74749;SDS011;63269;53.330;-6.288;2023-04-21T00:20:20;4.43;;;1.70;;
74749;SDS011;63269;53.330;-6.288;2023-04-21T00:22:45;6.85;;;1.60;;
74749;SDS011;63269;53.330;-6.288;2023-04-21T00:25:11;5.07;;;1.15;;
74749;SDS011;63269;53.330;-6.288;2023-04-21T00:27:36;4.18;;;1.58;;
74749;SDS011;63269;53.330;-6.288;2023-04-21T00:30:02;2.83;;;1.33;;
74749;SDS011;63269;53.330;-6.288;2023-04-21T00:32:27;4.80;;;1.45;;
74749;SDS011;63269;53.330;-6.288;2023-04-21T00:34:53;4.97;;;2.22;;
74749;SDS011;63269;53.330;-6.288;2023-04-21T00:37:18;4.70;;;1.50;;
74749;SDS011;63269;53.330;-6.288;2023-04-21T00:39:43;4.68;;;1.50;;
74749;SDS011;63269;53.330;-6.288;2023-04-21T00:42:09;6.35;;;1.90;;
74749;SDS011;63269;53.330;-6.288;2023-04-21T00:44:35;3.60;;;1.50;;
74749;SDS011;63269;53.330;-6.288;2023-04-21T00:47:00;4.07;;;1.33;;
74749;SDS011;63269;53.330;-6.288;2023-04-21T00:49:25;3.88;;;1.50;;
74749;SDS011;63269;53.330;-6.288;2023-04-21T00:51:51;4.00;;;1.65;;
74749;SDS011;63269;53.330;-6.288;2023-04-21T00:54:18;6.97;;;2.10;;
74749;SDS011;63269;53.330;-6.288;2023-04-21T00:56:44;6.05;;;1.70;;
74749;SDS011;63269;53.330;-6.288;2023-04-21T00:59:09;5.40;;;1.60;;
74749;SDS011;63269;53.330;-6.288;2023-04-21T01:01:35;4.93;;;1.63;;
74749;SDS011;63269;53.330;-6.288;2023-04-21T01:04:01;8.05;;;1.40;;
74749;SDS011;63269;53.330;-6.288;2023-04-21T01:06:32;6.28;;;1.65;;
74749;SDS011;63269;53.330;-6.288;2023-04-21T01:09:00;4.65;;;1.83;;
74749;SDS011;63269;53.330;-6.288;2023-04-21T01:11:28;4.53;;;1.67;;
74749;SDS011;63269;53.330;-6.288;2023-04-21T01:13:54;5.28;;;1.33;;
74749;SDS011;63269;53.330;-6.288;2023-04-21T01:16:20;5.53;;;1.70;;
74749;SDS011;63269;53.330;-6.288;2023-04-21T01:18:47;3.72;;;1.52;;
74749;SDS011;63269;53.330;-6.288;2023-04-21T01:21:12;4.00;;;1.60;;
74749;SDS011;63269;53.330;-6.288;2023-04-21T01:23:39;9.55;;;1.92;;
74749;SDS011;63269;53.330;-6.288;2023-04-21T01:26:04;4.80;;;1.73;;
74749;SDS011;63269;53.330;-6.288;2023-04-21T01:28:30;5.38;;;1.52;;
74749;SDS011;63269;53.330;-6.288;2023-04-21T01:30:55;3.00;;;1.70;;
74749;SDS011;63269;53.330;-6.288;2023-04-21T01:33:21;7.03;;;2.35;;
74749;SDS011;63269;53.330;-6.288;2023-04-21T01:35:47;6.35;;;1.63;;
74749;SDS011;63269;53.330;-6.288;2023-04-21T01:38:13;4.60;;;1.73;;
74749;SDS011;63269;53.330;-6.288;2023-04-21T01:40:43;4.90;;;2.03;;
74749;SDS011;63269;53.330;-6.288;2023-04-21T01:43:10;6.97;;;1.98;;
74749;SDS011;63269;53.330;-6.288;2023-04-21T01:45:36;9.27;;;2.45;;
74749;SDS011;63269;53.330;-6.288;2023-04-21T01:48:02;4.43;;;1.80;;
74749;SDS011;63269;53.330;-6.288;2023-04-21T01:50:27;8.27;;;2.08;;
74749;SDS011;63269;53.330;-6.288;2023-04-21T01:52:53;5.47;;;2.00;;
74749;SDS011;63269;53.330;-6.288;2023-04-21T01:55:18;5.60;;;2.20;;
74749;SDS011;63269;53.330;-6.288;2023-04-21T01:57:44;5.57;;;2.15;;
74749;SDS011;63269;53.330;-6.288;2023-04-21T02:00:09;6.68;;;2.45;;
74749;SDS011;63269;53.330;-6.288;2023-04-21T02:02:35;5.93;;;1.85;;
74749;SDS011;63269;53.330;-6.288;2023-04-21T02:05:01;5.35;;;2.08;;
74749;SDS011;63269;53.330;-6.288;2023-04-21T02:07:26;6.47;;;2.53;;
74749;SDS011;63269;53.330;-6.288;2023-04-21T02:09:51;6.55;;;2.38;;
74749;SDS011;63269;53.330;-6.288;2023-04-21T02:12:17;6.88;;;2.10;;
74749;SDS011;63269;53.330;-6.288;2023-04-21T02:14:42;6.82;;;2.35;;
74749;SDS011;63269;53.330;-6.288;2023-04-21T02:17:08;5.97;;;2.53;;
74749;SDS011;63269;53.330;-6.288;2023-04-21T02:19:33;5.57;;;2.13;;
74749;SDS011;63269;53.330;-6.288;2023-04-21T02:21:59;8.68;;;2.35;;
74749;SDS011;63269;53.330;-6.288;2023-04-21T02:24:24;4.60;;;2.22;;
74749;SDS011;63269;53.330;-6.288;2023-04-21T02:26:50;5.18;;;2.40;;
74749;SDS011;63269;53.330;-6.288;2023-04-21T02:29:15;6.68;;;2.70;;
74749;SDS011;63269;53.330;-6.288;2023-04-21T02:31:40;5.53;;;2.42;;
74749;SDS011;63269;53.330;-6.288;2023-04-21T02:34:06;5.35;;;2.17;;
74749;SDS011;63269;53.330;-6.288;2023-04-21T02:36:31;8.57;;;2.70;;
74749;SDS011;63269;53.330;-6.288;2023-04-21T02:38:57;6.05;;;1.83;;
74749;SDS011;63269;53.330;-6.288;2023-04-21T02:41:22;5.80;;;2.50;;
74749;SDS011;63269;53.330;-6.288;2023-04-21T02:43:48;5.10;;;2.00;;
74749;SDS011;63269;53.330;-6.288;2023-04-21T02:46:13;5.78;;;3.08;;
74749;SDS011;63269;53.330;-6.288;2023-04-21T02:48:39;6.35;;;2.60;;
74749;SDS011;63269;53.330;-6.288;2023-04-21T02:51:04;7.80;;;3.30;;
74749;SDS011;63269;53.330;-6.288;2023-04-21T02:53:35;7.88;;;2.25;;
74749;SDS011;63269;53.330;-6.288;2023-04-21T02:56:01;5.13;;;2.33;;
74749;SDS011;63269;53.330;-6.288;2023-04-21T02:58:28;9.38;;;3.05;;
74749;SDS011;63269;53.330;-6.288;2023-04-21T03:00:54;4.80;;;2.25;;
74749;SDS011;63269;53.330;-6.288;2023-04-21T03:03:20;4.72;;;2.33;;
74749;SDS011;63269;53.330;-6.288;2023-04-21T03:05:45;6.50;;;2.20;;
74749;SDS011;63269;53.330;-6.288;2023-04-21T03:08:11;6.20;;;2.75;;
74749;SDS011;63269;53.330;-6.288;2023-04-21T03:10:36;5.65;;;2.35;;
74749;SDS011;63269;53.330;-6.288;2023-04-21T03:13:02;6.25;;;2.58;;
74749;SDS011;63269;53.330;-6.288;2023-04-21T03:15:27;7.50;;;2.58;;
74749;SDS011;63269;53.330;-6.288;2023-04-21T03:17:53;6.38;;;2.50;;
74749;SDS011;63269;53.330;-6.288;2023-04-21T03:20:18;6.38;;;2.60;;
74749;SDS011;63269;53.330;-6.288;2023-04-21T03:22:44;6.18;;;2.63;;
74749;SDS011;63269;53.330;-6.288;2023-04-21T03:25:09;6.68;;;2.60;;
74749;SDS011;63269;53.330;-6.288;2023-04-21T03:27:35;5.20;;;2.47;;
74749;SDS011;63269;53.330;-6.288;2023-04-21T03:30:01;5.43;;;2.90;;
74749;SDS011;63269;53.330;-6.288;2023-04-21T03:32:27;5.22;;;2.33;;
74749;SDS011;63269;53.330;-6.288;2023-04-21T03:34:52;7.07;;;2.42;;
74749;SDS011;63269;53.330;-6.288;2023-04-21T03:37:18;6.82;;;2.92;;
74749;SDS011;63269;53.330;-6.288;2023-04-21T03:39:43;4.43;;;2.45;;
74749;SDS011;63269;53.330;-6.288;2023-04-21T03:42:08;5.57;;;2.55;;
74749;SDS011;63269;53.330;-6.288;2023-04-21T03:44:34;7.72;;;2.63;;
74749;SDS011;63269;53.330;-6.288;2023-04-21T03:46:59;5.50;;;2.22;;
74749;SDS011;63269;53.330;-6.288;2023-04-21T03:49:27;7.65;;;2.30;;
74749;SDS011;63269;53.330;-6.288;2023-04-21T03:51:52;6.47;;;2.35;;
74749;SDS011;63269;53.330;-6.288;2023-04-21T03:54:18;6.13;;;2.63;;
74749;SDS011;63269;53.330;-6.288;2023-04-21T03:56:43;4.78;;;2.22;;
74749;SDS011;63269;53.330;-6.288;2023-04-21T03:59:09;4.93;;;1.92;;
74749;SDS011;63269;53.330;-6.288;2023-04-21T04:01:34;6.50;;;2.42;;
74749;SDS011;63269;53.330;-6.288;2023-04-21T04:04:00;3.97;;;2.40;;
74749;SDS011;63269;53.330;-6.288;2023-04-21T04:06:25;8.18;;;3.22;;
74749;SDS011;63269;53.330;-6.288;2023-04-21T04:08:52;4.85;;;2.47;;
74749;SDS011;63269;53.330;-6.288;2023-04-21T04:11:18;7.38;;;2.30;;
74749;SDS011;63269;53.330;-6.288;2023-04-21T04:13:43;6.85;;;2.60;;
74749;SDS011;63269;53.330;-6.288;2023-04-21T04:16:08;8.85;;;3.30;;
74749;SDS011;63269;53.330;-6.288;2023-04-21T04:18:34;6.13;;;2.83;;
74749;SDS011;63269;53.330;-6.288;2023-04-21T04:21:04;7.85;;;2.58;;
74749;SDS011;63269;53.330;-6.288;2023-04-21T04:23:33;7.97;;;2.67;;
74749;SDS011;63269;53.330;-6.288;2023-04-21T04:25:58;6.80;;;2.60;;
74749;SDS011;63269;53.330;-6.288;2023-04-21T04:28:25;6.88;;;2.25;;
74749;SDS011;63269;53.330;-6.288;2023-04-21T04:30:51;6.70;;;2.65;;
74749;SDS011;63269;53.330;-6.288;2023-04-21T04:33:17;7.45;;;2.67;;
74749;SDS011;63269;53.330;-6.288;2023-04-21T04:35:42;5.22;;;2.40;;
74749;SDS011;63269;53.330;-6.288;2023-04-21T04:38:07;4.82;;;2.50;;
74749;SDS011;63269;53.330;-6.288;2023-04-21T04:40:33;7.05;;;2.22;;
74749;SDS011;63269;53.330;-6.288;2023-04-21T04:42:59;5.10;;;2.30;;
74749;SDS011;63269;53.330;-6.288;2023-04-21T04:45:26;6.25;;;2.60;;
74749;SDS011;63269;53.330;-6.288;2023-04-21T04:47:53;8.45;;;3.15;;
74749;SDS011;63269;53.330;-6.288;2023-04-21T04:50:19;6.15;;;2.40;;
74749;SDS011;63269;53.330;-6.288;2023-04-21T04:52:45;6.28;;;2.60;;
74749;SDS011;63269;53.330;-6.288;2023-04-21T04:55:11;4.60;;;2.00;;
74749;SDS011;63269;53.330;-6.288;2023-04-21T04:57:38;5.13;;;2.17;;
74749;SDS011;63269;53.330;-6.288;2023-04-21T05:00:05;7.07;;;2.45;;
74749;SDS011;63269;53.330;-6.288;2023-04-21T05:02:32;4.38;;;2.40;;
74749;SDS011;63269;53.330;-6.288;2023-04-21T05:04:58;5.03;;;2.30;;
74749;SDS011;63269;53.330;-6.288;2023-04-21T05:07:23;7.80;;;2.30;;
74749;SDS011;63269;53.330;-6.288;2023-04-21T05:09:48;8.38;;;3.13;;
74749;SDS011;63269;53.330;-6.288;2023-04-21T05:12:14;5.13;;;2.17;;
74749;SDS011;63269;53.330;-6.288;2023-04-21T05:14:39;6.95;;;2.70;;
74749;SDS011;63269;53.330;-6.288;2023-04-21T05:17:05;5.65;;;2.83;;
74749;SDS011;63269;53.330;-6.288;2023-04-21T05:19:30;4.53;;;2.22;;
74749;SDS011;63269;53.330;-6.288;2023-04-21T05:21:59;7.80;;;2.88;;
74749;SDS011;63269;53.330;-6.288;2023-04-21T05:24:27;4.40;;;2.00;;
74749;SDS011;63269;53.330;-6.288;2023-04-21T05:26:52;7.75;;;2.70;;
74749;SDS011;63269;53.330;-6.288;2023-04-21T05:29:18;4.22;;;2.22;;
74749;SDS011;63269;53.330;-6.288;2023-04-21T05:31:43;6.50;;;2.33;;
74749;SDS011;63269;53.330;-6.288;2023-04-21T05:34:09;6.57;;;2.70;;
74749;SDS011;63269;53.330;-6.288;2023-04-21T05:36:34;5.57;;;2.47;;
74749;SDS011;63269;53.330;-6.288;2023-04-21T05:39:00;5.20;;;2.25;;
74749;SDS011;63269;53.330;-6.288;2023-04-21T05:41:25;6.75;;;2.65;;
74749;SDS011;63269;53.330;-6.288;2023-04-21T05:43:50;4.90;;;2.63;;
74749;SDS011;63269;53.330;-6.288;2023-04-21T05:46:16;6.38;;;2.90;;
74749;SDS011;63269;53.330;-6.288;2023-04-21T05:48:41;8.48;;;2.97;;
74749;SDS011;63269;53.330;-6.288;2023-04-21T05:51:10;4.85;;;2.55;;
74749;SDS011;63269;53.330;-6.288;2023-04-21T05:53:37;7.32;;;3.00;;
74749;SDS011;63269;53.330;-6.288;2023-04-21T05:56:03;6.70;;;2.63;;
74749;SDS011;63269;53.330;-6.288;2023-04-21T05:58:29;6.88;;;2.65;;
74749;SDS011;63269;53.330;-6.288;2023-04-21T06:00:55;8.52;;;2.80;;
74749;SDS011;63269;53.330;-6.288;2023-04-21T06:03:20;8.80;;;3.03;;
74749;SDS011;63269;53.330;-6.288;2023-04-21T06:05:46;6.68;;;2.22;;
74749;SDS011;63269;53.330;-6.288;2023-04-21T06:08:11;6.53;;;2.78;;
74749;SDS011;63269;53.330;-6.288;2023-04-21T06:10:37;7.07;;;2.70;;
74749;SDS011;63269;53.330;-6.288;2023-04-21T06:13:02;6.70;;;2.47;;
74749;SDS011;63269;53.330;-6.288;2023-04-21T06:15:28;5.95;;;2.30;;
74749;SDS011;63269;53.330;-6.288;2023-04-21T06:17:53;5.00;;;2.20;;
74749;SDS011;63269;53.330;-6.288;2023-04-21T06:20:19;5.60;;;1.90;;
74749;SDS011;63269;53.330;-6.288;2023-04-21T06:22:44;6.60;;;3.00;;
74749;SDS011;63269;53.330;-6.288;2023-04-21T06:25:10;7.65;;;2.97;;
74749;SDS011;63269;53.330;-6.288;2023-04-21T06:27:35;6.40;;;2.20;;
74749;SDS011;63269;53.330;-6.288;2023-04-21T06:30:01;5.65;;;2.00;;
74749;SDS011;63269;53.330;-6.288;2023-04-21T06:32:26;5.22;;;2.10;;
74749;SDS011;63269;53.330;-6.288;2023-04-21T06:34:52;4.95;;;2.40;;
74749;SDS011;63269;53.330;-6.288;2023-04-21T06:37:17;3.42;;;2.30;;
74749;SDS011;63269;53.330;-6.288;2023-04-21T06:39:43;3.53;;;1.98;;
74749;SDS011;63269;53.330;-6.288;2023-04-21T06:42:08;8.52;;;2.55;;
74749;SDS011;63269;53.330;-6.288;2023-04-21T06:44:33;5.18;;;1.90;;
74749;SDS011;63269;53.330;-6.288;2023-04-21T06:46:59;5.82;;;2.55;;
74749;SDS011;63269;53.330;-6.288;2023-04-21T06:49:24;5.20;;;2.15;;
74749;SDS011;63269;53.330;-6.288;2023-04-21T06:51:50;6.95;;;2.45;;
74749;SDS011;63269;53.330;-6.288;2023-04-21T06:54:15;6.13;;;1.88;;
74749;SDS011;63269;53.330;-6.288;2023-04-21T06:56:40;5.63;;;2.13;;
74749;SDS011;63269;53.330;-6.288;2023-04-21T06:59:07;5.38;;;2.10;;
74749;SDS011;63269;53.330;-6.288;2023-04-21T07:01:33;5.43;;;2.55;;
74749;SDS011;63269;53.330;-6.288;2023-04-21T07:03:58;6.63;;;2.20;;
74749;SDS011;63269;53.330;-6.288;2023-04-21T07:06:24;9.77;;;2.58;;
74749;SDS011;63269;53.330;-6.288;2023-04-21T07:08:50;5.63;;;2.47;;
74749;SDS011;63269;53.330;-6.288;2023-04-21T07:11:15;5.93;;;2.40;;
74749;SDS011;63269;53.330;-6.288;2023-04-21T07:13:41;5.25;;;2.25;;
74749;SDS011;63269;53.330;-6.288;2023-04-21T07:16:06;4.90;;;1.90;;
74749;SDS011;63269;53.330;-6.288;2023-04-21T07:18:32;7.07;;;2.45;;
74749;SDS011;63269;53.330;-6.288;2023-04-21T07:20:58;5.60;;;1.98;;
74749;SDS011;63269;53.330;-6.288;2023-04-21T07:23:24;5.13;;;2.00;;
74749;SDS011;63269;53.330;-6.288;2023-04-21T07:25:50;4.15;;;2.03;;
74749;SDS011;63269;53.330;-6.288;2023-04-21T07:28:15;6.25;;;2.45;;
74749;SDS011;63269;53.330;-6.288;2023-04-21T07:30:41;6.18;;;1.88;;
74749;SDS011;63269;53.330;-6.288;2023-04-21T07:33:07;5.55;;;2.47;;
74749;SDS011;63269;53.330;-6.288;2023-04-21T07:35:33;7.47;;;2.85;;
74749;SDS011;63269;53.330;-6.288;2023-04-21T07:37:58;5.20;;;2.35;;
74749;SDS011;63269;53.330;-6.288;2023-04-21T07:40:24;7.25;;;2.47;;
74749;SDS011;63269;53.330;-6.288;2023-04-21T07:42:50;5.80;;;2.45;;
74749;SDS011;63269;53.330;-6.288;2023-04-21T07:45:15;3.67;;;2.05;;
74749;SDS011;63269;53.330;-6.288;2023-04-21T07:47:41;5.60;;;2.15;;
74749;SDS011;63269;53.330;-6.288;2023-04-21T07:50:06;6.28;;;2.65;;
74749;SDS011;63269;53.330;-6.288;2023-04-21T07:52:32;8.80;;;2.90;;
74749;SDS011;63269;53.330;-6.288;2023-04-21T07:54:57;4.95;;;2.22;;
74749;SDS011;63269;53.330;-6.288;2023-04-21T07:57:23;8.45;;;2.67;;
74749;SDS011;63269;53.330;-6.288;2023-04-21T07:59:49;5.35;;;2.72;;
74749;SDS011;63269;53.330;-6.288;2023-04-21T08:02:14;5.80;;;2.30;;
74749;SDS011;63269;53.330;-6.288;2023-04-21T08:04:40;7.22;;;2.13;;
74749;SDS011;63269;53.330;-6.288;2023-04-21T08:07:05;7.47;;;2.20;;
74749;SDS011;63269;53.330;-6.288;2023-04-21T08:09:31;4.22;;;2.13;;
74749;SDS011;63269;53.330;-6.288;2023-04-21T08:11:56;4.25;;;1.90;;
74749;SDS011;63269;53.330;-6.288;2023-04-21T08:14:22;5.18;;;2.10;;
74749;SDS011;63269;53.330;-6.288;2023-04-21T08:16:47;5.70;;;2.10;;
74749;SDS011;63269;53.330;-6.288;2023-04-21T08:19:13;6.32;;;2.20;;
74749;SDS011;63269;53.330;-6.288;2023-04-21T08:21:38;5.57;;;2.72;;
74749;SDS011;63269;53.330;-6.288;2023-04-21T08:24:04;9.05;;;2.88;;
74749;SDS011;63269;53.330;-6.288;2023-04-21T08:26:30;3.95;;;2.03;;
74749;SDS011;63269;53.330;-6.288;2023-04-21T08:28:57;4.65;;;2.80;;
74749;SDS011;63269;53.330;-6.288;2023-04-21T08:31:24;7.05;;;2.50;;
74749;SDS011;63269;53.330;-6.288;2023-04-21T08:33:50;5.30;;;2.70;;
74749;SDS011;63269;53.330;-6.288;2023-04-21T08:36:15;5.35;;;2.40;;
74749;SDS011;63269;53.330;-6.288;2023-04-21T08:38:44;5.50;;;2.42;;
74749;SDS011;63269;53.330;-6.288;2023-04-21T08:41:09;6.07;;;2.50;;
74749;SDS011;63269;53.330;-6.288;2023-04-21T08:43:35;5.70;;;3.45;;
74749;SDS011;63269;53.330;-6.288;2023-04-21T08:46:01;8.23;;;2.40;;
74749;SDS011;63269;53.330;-6.288;2023-04-21T08:48:31;5.78;;;2.60;;
74749;SDS011;63269;53.330;-6.288;2023-04-21T08:51:00;4.15;;;2.25;;
74749;SDS011;63269;53.330;-6.288;2023-04-21T08:53:26;10.43;;;2.80;;
74749;SDS011;63269;53.330;-6.288;2023-04-21T08:55:52;6.53;;;2.53;;
74749;SDS011;63269;53.330;-6.288;2023-04-21T08:58:19;5.32;;;2.20;;
74749;SDS011;63269;53.330;-6.288;2023-04-21T09:00:46;5.60;;;2.58;;
74749;SDS011;63269;53.330;-6.288;2023-04-21T09:03:12;5.72;;;2.70;;
74749;SDS011;63269;53.330;-6.288;2023-04-21T09:05:45;5.82;;;2.90;;
74749;SDS011;63269;53.330;-6.288;2023-04-21T09:08:25;6.97;;;2.78;;
74749;SDS011;63269;53.330;-6.288;2023-04-21T09:10:52;5.30;;;2.92;;
74749;SDS011;63269;53.330;-6.288;2023-04-21T09:13:18;8.05;;;2.80;;
74749;SDS011;63269;53.330;-6.288;2023-04-21T09:15:48;7.38;;;2.97;;
74749;SDS011;63269;53.330;-6.288;2023-04-21T09:18:16;5.30;;;2.75;;
74749;SDS011;63269;53.330;-6.288;2023-04-21T09:20:43;6.82;;;2.55;;
74749;SDS011;63269;53.330;-6.288;2023-04-21T09:23:10;7.13;;;3.10;;
74749;SDS011;63269;53.330;-6.288;2023-04-21T09:25:40;7.60;;;2.90;;
74749;SDS011;63269;53.330;-6.288;2023-04-21T09:28:07;8.65;;;3.03;;
74749;SDS011;63269;53.330;-6.288;2023-04-21T09:30:34;9.45;;;2.83;;
74749;SDS011;63269;53.330;-6.288;2023-04-21T09:33:00;6.68;;;3.17;;
74749;SDS011;63269;53.330;-6.288;2023-04-21T09:35:33;9.00;;;3.45;;
74749;SDS011;63269;53.330;-6.288;2023-04-21T09:38:00;7.35;;;2.67;;
74749;SDS011;63269;53.330;-6.288;2023-04-21T09:40:27;9.30;;;3.35;;
74749;SDS011;63269;53.330;-6.288;2023-04-21T09:42:53;13.73;;;3.83;;
74749;SDS011;63269;53.330;-6.288;2023-04-21T09:45:19;7.50;;;3.20;;
74749;SDS011;63269;53.330;-6.288;2023-04-21T09:47:47;6.68;;;3.08;;
74749;SDS011;63269;53.330;-6.288;2023-04-21T09:50:15;7.63;;;3.00;;
74749;SDS011;63269;53.330;-6.288;2023-04-21T09:52:41;6.47;;;3.08;;
74749;SDS011;63269;53.330;-6.288;2023-04-21T09:55:11;7.57;;;2.95;;
74749;SDS011;63269;53.330;-6.288;2023-04-21T09:57:37;9.43;;;3.63;;
74749;SDS011;63269;53.330;-6.288;2023-04-21T10:00:06;10.02;;;2.95;;
74749;SDS011;63269;53.330;-6.288;2023-04-21T10:02:34;6.35;;;3.28;;
74749;SDS011;63269;53.330;-6.288;2023-04-21T10:05:02;6.68;;;3.30;;
74749;SDS011;63269;53.330;-6.288;2023-04-21T10:07:30;7.27;;;3.50;;
74749;SDS011;63269;53.330;-6.288;2023-04-21T10:09:56;11.75;;;4.03;;
74749;SDS011;63269;53.330;-6.288;2023-04-21T10:12:23;16.02;;;3.30;;
74749;SDS011;63269;53.330;-6.288;2023-04-21T10:14:53;8.93;;;3.58;;
74749;SDS011;63269;53.330;-6.288;2023-04-21T10:17:23;22.60;;;12.48;;
74749;SDS011;63269;53.330;-6.288;2023-04-21T10:19:54;12.25;;;4.80;;
74749;SDS011;63269;53.330;-6.288;2023-04-21T10:22:28;14.95;;;5.38;;
74749;SDS011;63269;53.330;-6.288;2023-04-21T10:24:55;12.60;;;4.57;;
74749;SDS011;63269;53.330;-6.288;2023-04-21T10:27:31;11.90;;;4.78;;
74749;SDS011;63269;53.330;-6.288;2023-04-21T10:30:17;12.13;;;3.97;;
74749;SDS011;63269;53.330;-6.288;2023-04-21T10:32:47;11.35;;;4.82;;
74749;SDS011;63269;53.330;-6.288;2023-04-21T10:35:20;10.88;;;4.15;;
74749;SDS011;63269;53.330;-6.288;2023-04-21T10:37:48;13.95;;;4.78;;
74749;SDS011;63269;53.330;-6.288;2023-04-21T10:40:34;14.55;;;5.00;;
74749;SDS011;63269;53.330;-6.288;2023-04-21T10:43:04;17.50;;;4.38;;
74749;SDS011;63269;53.330;-6.288;2023-04-21T10:45:29;12.50;;;4.83;;
74749;SDS011;63269;53.330;-6.288;2023-04-21T10:47:58;10.93;;;5.05;;
74749;SDS011;63269;53.330;-6.288;2023-04-21T10:50:28;11.25;;;4.43;;
74749;SDS011;63269;53.330;-6.288;2023-04-21T10:53:08;9.70;;;5.07;;
74749;SDS011;63269;53.330;-6.288;2023-04-21T10:55:37;17.02;;;4.47;;
74749;SDS011;63269;53.330;-6.288;2023-04-21T10:58:04;9.82;;;4.18;;
74749;SDS011;63269;53.330;-6.288;2023-04-21T11:00:31;21.25;;;5.38;;
74749;SDS011;63269;53.330;-6.288;2023-04-21T11:02:58;12.10;;;4.70;;
74749;SDS011;63269;53.330;-6.288;2023-04-21T11:05:27;15.03;;;4.50;;
74749;SDS011;63269;53.330;-6.288;2023-04-21T11:08:06;13.90;;;4.30;;
74749;SDS011;63269;53.330;-6.288;2023-04-21T11:10:55;13.93;;;4.43;;
74749;SDS011;63269;53.330;-6.288;2023-04-21T11:13:26;18.13;;;4.80;;
74749;SDS011;63269;53.330;-6.288;2023-04-21T11:16:01;15.82;;;4.40;;
74749;SDS011;63269;53.330;-6.288;2023-04-21T11:18:33;13.98;;;3.85;;
74749;SDS011;63269;53.330;-6.288;2023-04-21T11:21:11;13.15;;;4.40;;
74749;SDS011;63269;53.330;-6.288;2023-04-21T11:23:48;10.80;;;4.45;;
74749;SDS011;63269;53.330;-6.288;2023-04-21T11:26:17;14.57;;;4.35;;
74749;SDS011;63269;53.330;-6.288;2023-04-21T11:28:53;14.18;;;4.38;;
74749;SDS011;63269;53.330;-6.288;2023-04-21T11:31:18;12.02;;;3.92;;
74749;SDS011;63269;53.330;-6.288;2023-04-21T11:33:44;14.20;;;4.93;;
74749;SDS011;63269;53.330;-6.288;2023-04-21T11:36:09;13.10;;;4.32;;
74749;SDS011;63269;53.330;-6.288;2023-04-21T11:38:38;9.68;;;4.40;;
74749;SDS011;63269;53.330;-6.288;2023-04-21T11:43:30;13.25;;;4.72;;
74749;SDS011;63269;53.330;-6.288;2023-04-21T11:46:12;13.75;;;4.20;;
74749;SDS011;63269;53.330;-6.288;2023-04-21T11:48:41;18.52;;;4.90;;
74749;SDS011;63269;53.330;-6.288;2023-04-21T11:51:13;13.38;;;4.90;;
74749;SDS011;63269;53.330;-6.288;2023-04-21T11:53:39;12.18;;;4.95;;
74749;SDS011;63269;53.330;-6.288;2023-04-21T11:56:05;13.82;;;4.70;;
74749;SDS011;63269;53.330;-6.288;2023-04-21T11:58:30;11.32;;;4.15;;
74749;SDS011;63269;53.330;-6.288;2023-04-21T12:00:56;17.20;;;4.80;;
74749;SDS011;63269;53.330;-6.288;2023-04-21T12:03:21;12.55;;;4.50;;
74749;SDS011;63269;53.330;-6.288;2023-04-21T12:05:54;18.92;;;4.97;;
74749;SDS011;63269;53.330;-6.288;2023-04-21T12:08:20;11.65;;;4.38;;
74749;SDS011;63269;53.330;-6.288;2023-04-21T12:10:47;12.10;;;4.53;;
74749;SDS011;63269;53.330;-6.288;2023-04-21T12:13:17;14.50;;;4.50;;
74749;SDS011;63269;53.330;-6.288;2023-04-21T12:15:46;16.05;;;5.10;;
74749;SDS011;63269;53.330;-6.288;2023-04-21T12:18:13;15.10;;;4.68;;
74749;SDS011;63269;53.330;-6.288;2023-04-21T12:20:38;15.40;;;5.28;;
74749;SDS011;63269;53.330;-6.288;2023-04-21T12:23:13;11.27;;;4.60;;
74749;SDS011;63269;53.330;-6.288;2023-04-21T12:25:38;15.35;;;4.72;;
74749;SDS011;63269;53.330;-6.288;2023-04-21T12:28:04;17.15;;;5.53;;
74749;SDS011;63269;53.330;-6.288;2023-04-21T12:30:32;14.23;;;4.85;;
74749;SDS011;63269;53.330;-6.288;2023-04-21T12:32:58;11.90;;;4.95;;
74749;SDS011;63269;53.330;-6.288;2023-04-21T12:35:24;14.73;;;4.63;;
74749;SDS011;63269;53.330;-6.288;2023-04-21T12:37:49;15.45;;;4.70;;
74749;SDS011;63269;53.330;-6.288;2023-04-21T12:40:15;13.65;;;4.93;;
74749;SDS011;63269;53.330;-6.288;2023-04-21T12:42:41;13.05;;;5.03;;
74749;SDS011;63269;53.330;-6.288;2023-04-21T12:45:06;15.40;;;4.95;;
74749;SDS011;63269;53.330;-6.288;2023-04-21T12:47:32;16.35;;;4.55;;
74749;SDS011;63269;53.330;-6.288;2023-04-21T12:49:59;19.30;;;5.25;;
74749;SDS011;63269;53.330;-6.288;2023-04-21T12:52:24;19.05;;;5.85;;
74749;SDS011;63269;53.330;-6.288;2023-04-21T12:54:50;13.23;;;4.68;;
74749;SDS011;63269;53.330;-6.288;2023-04-21T12:57:16;24.77;;;4.88;;
74749;SDS011;63269;53.330;-6.288;2023-04-21T12:59:41;17.15;;;5.07;;
74749;SDS011;63269;53.330;-6.288;2023-04-21T13:02:07;16.50;;;5.45;;
74749;SDS011;63269;53.330;-6.288;2023-04-21T13:04:32;17.48;;;5.00;;
74749;SDS011;63269;53.330;-6.288;2023-04-21T13:06:58;11.80;;;4.88;;
74749;SDS011;63269;53.330;-6.288;2023-04-21T13:09:23;22.98;;;5.03;;
74749;SDS011;63269;53.330;-6.288;2023-04-21T13:11:49;15.48;;;4.80;;
74749;SDS011;63269;53.330;-6.288;2023-04-21T13:14:15;17.20;;;6.25;;
74749;SDS011;63269;53.330;-6.288;2023-04-21T13:16:41;20.40;;;5.40;;
74749;SDS011;63269;53.330;-6.288;2023-04-21T13:19:07;22.58;;;5.60;;
74749;SDS011;63269;53.330;-6.288;2023-04-21T13:21:32;15.30;;;5.18;;
74749;SDS011;63269;53.330;-6.288;2023-04-21T13:23:58;12.90;;;4.72;;
74749;SDS011;63269;53.330;-6.288;2023-04-21T13:26:24;23.50;;;6.47;;
74749;SDS011;63269;53.330;-6.288;2023-04-21T13:28:49;18.05;;;5.35;;
74749;SDS011;63269;53.330;-6.288;2023-04-21T13:31:15;18.27;;;5.47;;
74749;SDS011;63269;53.330;-6.288;2023-04-21T13:33:40;19.15;;;5.57;;
74749;SDS011;63269;53.330;-6.288;2023-04-21T13:36:06;19.45;;;4.97;;
74749;SDS011;63269;53.330;-6.288;2023-04-21T13:38:33;16.52;;;5.85;;
74749;SDS011;63269;53.330;-6.288;2023-04-21T13:40:58;16.75;;;5.18;;
74749;SDS011;63269;53.330;-6.288;2023-04-21T13:43:24;22.70;;;5.43;;
74749;SDS011;63269;53.330;-6.288;2023-04-21T13:45:50;17.17;;;5.38;;
74749;SDS011;63269;53.330;-6.288;2023-04-21T13:48:17;14.40;;;5.07;;
74749;SDS011;63269;53.330;-6.288;2023-04-21T13:50:44;13.25;;;5.63;;
74749;SDS011;63269;53.330;-6.288;2023-04-21T13:53:10;15.23;;;4.80;;
74749;SDS011;63269;53.330;-6.288;2023-04-21T13:55:35;16.95;;;5.47;;
74749;SDS011;63269;53.330;-6.288;2023-04-21T13:58:01;14.43;;;5.43;;
74749;SDS011;63269;53.330;-6.288;2023-04-21T14:00:26;16.38;;;5.57;;
74749;SDS011;63269;53.330;-6.288;2023-04-21T14:02:51;18.35;;;5.97;;
74749;SDS011;63269;53.330;-6.288;2023-04-21T14:05:17;20.02;;;4.95;;
74749;SDS011;63269;53.330;-6.288;2023-04-21T14:07:42;13.50;;;4.93;;
74749;SDS011;63269;53.330;-6.288;2023-04-21T14:10:08;15.60;;;4.95;;
74749;SDS011;63269;53.330;-6.288;2023-04-21T14:12:35;17.90;;;5.25;;
74749;SDS011;63269;53.330;-6.288;2023-04-21T14:15:01;19.20;;;5.63;;
74749;SDS011;63269;53.330;-6.288;2023-04-21T14:17:26;14.60;;;5.13;;
74749;SDS011;63269;53.330;-6.288;2023-04-21T14:19:52;15.45;;;5.03;;
74749;SDS011;63269;53.330;-6.288;2023-04-21T14:22:17;17.02;;;5.75;;
74749;SDS011;63269;53.330;-6.288;2023-04-21T14:24:44;10.68;;;5.10;;
74749;SDS011;63269;53.330;-6.288;2023-04-21T14:27:12;11.55;;;4.57;;
74749;SDS011;63269;53.330;-6.288;2023-04-21T14:29:38;13.60;;;4.80;;